Time;durP1;ratioP1;P1;durP2;ratioP2;P2;SDS_P1;SDS_P2;PMS_P1;PMS_P2;Temp;Humidity;BMP_temperature;BMP_pressure;BME280_temperature;BME280_humidity;BME280_pressure;Samples;Min_cycle;Max_cycle;Signal;HPM_P1;HPM_P2
2022/02/11 00:02:08;;;;;;;5.90;4.13;;;4.90;1.00;;;;;;5094198;28;20212;-73
2022/02/11 00:07:19;;;;;;;7.57;4.40;;;4.90;1.00;;;;;;5133598;27;20574;-73
2022/02/11 00:09:48;;;;;;;7.00;4.40;;;4.90;1.00;;;;;;5129810;27;20245;-73
2022/02/11 00:12:16;;;;;;;7.07;4.37;;;4.90;1.00;;;;;;5112679;28;20200;-73
2022/02/11 00:14:50;;;;;;;9.57;4.67;;;4.90;1.00;;;;;;5109757;28;20225;-73
2022/02/11 00:17:17;;;;;;;8.33;5.27;;;4.80;1.00;;;;;;5123569;27;20210;-73
2022/02/11 00:19:45;;;;;;;7.57;5.10;;;4.80;29.50;;;;;;5133076;27;20566;-73
2022/02/11 00:22:12;;;;;;;9.10;5.57;;;4.80;46.60;;;;;;5120394;27;20308;-73
2022/02/11 00:24:39;;;;;;;9.10;4.80;;;4.80;99.90;;;;;;5111631;28;20201;-73
2022/02/11 00:32:41;;;;;;;12.67;5.87;;;4.80;99.90;;;;;;5129955;27;20689;-73
2022/02/11 00:35:19;;;;;;;12.07;6.03;;;4.80;99.90;;;;;;5102417;28;20200;-73
2022/02/11 00:37:46;;;;;;;11.53;5.73;;;4.80;99.90;;;;;;5092179;28;20207;-73
2022/02/11 00:40:25;;;;;;;12.60;5.87;;;4.80;99.90;;;;;;5116479;27;20643;-73
2022/02/11 01:02:25;;;;;;;10.77;5.20;;;4.80;99.90;;;;;;5111473;27;20223;-70
2022/02/11 01:04:52;;;;;;;14.33;5.77;;;4.80;1.00;;;;;;5111284;28;20291;-70
2022/02/11 01:07:19;;;;;;;11.50;5.60;;;4.80;1.00;;;;;;5111121;28;20643;-70
2022/02/11 01:09:47;;;;;;;11.23;5.67;;;4.80;1.00;;;;;;5110331;28;20207;-70
2022/02/11 01:12:14;;;;;;;13.17;5.63;;;4.90;1.00;;;;;;5117654;27;20203;-69
2022/02/11 01:14:49;;;;;;;9.67;5.53;;;4.80;1.00;;;;;;5130618;27;20210;-70
2022/02/11 01:17:23;;;;;;;10.70;5.30;;;4.80;1.00;;;;;;5131435;27;20208;-70
2022/02/11 01:19:57;;;;;;;10.90;5.73;;;4.80;1.00;;;;;;5115952;27;20705;-70
2022/02/11 01:22:44;;;;;;;12.57;5.03;;;4.70;1.00;;;;;;5117056;27;20318;-70
2022/02/11 01:28:14;;;;;;;8.03;4.77;;;4.70;99.90;;;;;;5063733;28;20198;-70
2022/02/11 01:33:39;;;;;;;12.90;5.20;;;4.70;99.90;;;;;;5108096;28;20288;-70
2022/02/11 01:36:20;;;;;;;9.63;4.80;;;4.70;99.90;;;;;;5091598;28;20537;-70
2022/02/11 01:39:08;;;;;;;12.63;5.30;;;4.70;99.90;;;;;;5093273;28;20196;-70
2022/02/11 01:50:40;;;;;;;9.30;4.80;;;4.70;1.00;;;;;;5093292;28;20197;-70
2022/02/11 01:53:17;;;;;;;12.00;5.53;;;4.70;1.00;;;;;;5108189;28;20197;-70
2022/02/11 01:59:06;;;;;;;12.70;5.13;;;4.80;1.00;;;;;;5107038;28;20209;-70
2022/02/11 02:15:53;;;;;;;9.87;4.07;;;4.70;1.00;;;;;;5102146;28;20560;-69
2022/02/11 02:26:53;;;;;;;10.50;4.03;;;4.70;1.00;;;;;;5085255;28;20265;-70
2022/02/11 02:35:34;;;;;;;11.40;3.60;;;4.60;1.00;;;;;;5023133;28;20195;-70
2022/02/11 02:38:32;;;;;;;11.70;4.80;;;4.50;1.00;;;;;;5106837;28;20204;-69
2022/02/11 02:57:42;;;;;;;16.27;7.27;;;4.20;1.00;;;;;;5080108;28;20194;-69
2022/02/11 03:58:38;;;;;;;11.97;7.67;;;3.60;1.00;;;;;;5047108;28;20252;-73
2022/02/11 04:23:42;;;;;;;12.87;7.00;;;3.10;1.00;;;;;;5090886;28;20200;-73
2022/02/11 04:56:32;;;;;;;19.40;10.80;;;2.90;1.00;;;;;;5039333;28;20195;-73
2022/02/11 05:01:45;;;;;;;21.93;11.67;;;2.70;1.00;;;;;;5087792;28;20678;-73
2022/02/11 05:04:12;;;;;;;23.33;12.17;;;2.80;1.00;;;;;;5083251;28;20205;-73
2022/02/11 05:06:39;;;;;;;24.43;13.87;;;2.80;1.00;;;;;;5078066;28;20261;-73
2022/02/11 05:09:06;;;;;;;22.90;13.20;;;2.80;1.00;;;;;;5086382;28;20743;-73
2022/02/11 05:11:34;;;;;;;22.53;13.00;;;2.80;1.00;;;;;;5084502;28;20198;-73
2022/02/11 05:14:01;;;;;;;23.20;12.83;;;2.90;1.00;;;;;;5081730;28;20209;-73
2022/02/11 05:16:28;;;;;;;23.40;12.97;;;2.90;1.00;;;;;;5075578;28;20732;-73
2022/02/11 05:18:55;;;;;;;23.40;13.53;;;2.90;1.00;;;;;;5083965;28;20198;-74
2022/02/11 05:21:22;;;;;;;23.97;13.80;;;2.90;1.00;;;;;;5079352;28;20203;-73
2022/02/11 05:23:49;;;;;;;24.57;12.83;;;2.90;1.00;;;;;;5080084;28;20421;-72
2022/02/11 05:26:16;;;;;;;23.73;13.67;;;2.90;1.00;;;;;;5072514;28;20249;-73
2022/02/11 05:28:45;;;;;;;22.40;12.20;;;3.00;1.00;;;;;;5085720;28;20198;-73
2022/02/11 05:31:12;;;;;;;24.57;13.37;;;3.00;1.00;;;;;;5078359;28;20399;-73
2022/02/11 05:33:39;;;;;;;25.83;13.73;;;3.00;1.00;;;;;;5087211;28;20253;-73
2022/02/11 05:36:06;;;;;;;25.43;13.50;;;3.00;1.00;;;;;;5072186;28;20686;-73
2022/02/11 05:38:33;;;;;;;27.93;13.73;;;3.00;1.00;;;;;;5074923;28;20201;-73
2022/02/11 05:41:00;;;;;;;25.53;12.73;;;3.10;1.00;;;;;;5086180;28;20205;-73
2022/02/11 05:43:27;;;;;;;23.20;12.77;;;3.00;1.00;;;;;;5077652;28;20203;-73
2022/02/11 05:45:56;;;;;;;26.77;13.80;;;3.20;1.00;;;;;;5080718;28;20244;-73
2022/02/11 05:48:23;;;;;;;25.50;14.10;;;3.30;1.00;;;;;;5076097;28;20696;-73
2022/02/11 05:50:50;;;;;;;27.00;13.50;;;3.40;1.00;;;;;;5087627;28;20272;-73
2022/02/11 05:53:17;;;;;;;27.40;13.50;;;3.40;1.00;;;;;;5079852;28;20319;-73
2022/02/11 05:55:44;;;;;;;28.57;15.60;;;3.50;1.00;;;;;;5084063;28;20268;-72
2022/02/11 05:58:11;;;;;;;28.20;14.67;;;3.60;99.90;;;;;;5078252;28;20199;-73
2022/02/11 06:00:38;;;;;;;26.83;13.27;;;3.60;99.90;;;;;;5081818;28;20202;-73
2022/02/11 06:03:06;;;;;;;26.13;12.83;;;3.60;99.90;;;;;;5081385;28;20206;-73
2022/02/11 06:05:33;;;;;;;24.83;12.87;;;3.70;99.90;;;;;;5085640;28;20202;-73
2022/02/11 06:08:00;;;;;;;23.97;12.27;;;3.70;99.90;;;;;;5076359;28;20271;-73
2022/02/11 06:10:27;;;;;;;25.63;13.67;;;3.70;99.90;;;;;;5078064;28;20292;-72
2022/02/11 06:12:54;;;;;;;23.53;12.33;;;3.80;25.10;;;;;;5085595;28;20252;-73
2022/02/11 06:15:23;;;;;;;27.10;14.07;;;3.80;99.90;;;;;;5077210;28;20198;-73
2022/02/11 06:17:50;;;;;;;25.07;12.50;;;3.90;99.90;;;;;;5080756;28;20552;-72
2022/02/11 06:20:28;;;;;;;25.03;13.00;;;3.90;99.90;;;;;;5075024;28;20198;-79
2022/02/11 06:22:55;;;;;;;25.63;13.57;;;4.00;99.90;;;;;;5082770;28;20197;-80
2022/02/11 06:25:32;;;;;;;26.60;13.57;;;3.90;99.90;;;;;;5091845;28;20556;-80
2022/02/11 06:27:59;;;;;;;27.83;13.57;;;4.00;99.90;;;;;;5084560;28;20212;-79
2022/02/11 06:30:27;;;;;;;26.37;11.90;;;4.00;99.90;;;;;;5091006;28;20216;-80
2022/02/11 06:32:54;;;;;;;26.73;12.83;;;4.10;99.90;;;;;;5084222;28;20227;-80
2022/02/11 06:35:22;;;;;;;25.30;13.33;;;4.00;99.90;;;;;;5103855;28;20196;-79
2022/02/11 06:37:50;;;;;;;25.37;11.83;;;4.00;99.90;;;;;;5094556;28;20194;-79
2022/02/11 06:40:17;;;;;;;23.93;12.80;;;4.10;99.90;;;;;;5086230;28;20485;-80
2022/02/11 06:42:45;;;;;;;24.80;14.33;;;4.10;1.00;;;;;;5093932;28;20201;-79
2022/02/11 06:45:26;;;;;;;25.03;13.63;;;4.20;1.00;;;;;;5090141;28;20209;-80
2022/02/11 06:48:00;;;;;;;25.33;14.60;;;4.10;1.00;;;;;;5065146;28;20238;-79
2022/02/11 06:50:27;;;;;;;23.57;13.33;;;4.20;1.00;;;;;;5075762;28;20190;-80
2022/02/11 06:52:56;;;;;;;23.90;12.57;;;4.20;1.00;;;;;;5067733;28;20201;-79
2022/02/11 06:55:25;;;;;;;22.67;11.87;;;4.30;99.90;;;;;;5076690;28;20202;-80
2022/02/11 06:57:53;;;;;;;22.87;12.20;;;4.30;99.90;;;;;;5070166;28;20200;-79
2022/02/11 07:00:20;;;;;;;19.43;11.60;;;4.20;1.00;;;;;;5071948;28;20210;-80
2022/02/11 07:02:47;;;;;;;19.27;11.70;;;4.30;1.00;;;;;;5063581;28;20214;-70
2022/02/11 07:05:14;;;;;;;19.63;12.83;;;4.30;99.90;;;;;;5062902;28;20555;-73
2022/02/11 07:07:41;;;;;;;18.77;12.63;;;4.40;99.90;;;;;;5062188;28;20219;-72
2022/02/11 07:10:11;;;;;;;19.80;13.60;;;4.40;99.90;;;;;;5074684;28;20198;-68
2022/02/11 07:12:38;;;;;;;21.43;13.17;;;4.40;1.00;;;;;;5064842;28;20261;-73
2022/02/11 07:15:06;;;;;;;20.93;13.60;;;4.40;1.00;;;;;;5058188;28;20207;-73
2022/02/11 07:17:33;;;;;;;21.33;13.57;;;4.30;1.00;;;;;;5068136;28;20207;-72
2022/02/11 07:20:00;;;;;;;19.53;12.90;;;4.40;1.00;;;;;;5063976;28;20199;-73
2022/02/11 07:22:34;;;;;;;19.17;13.13;;;4.40;1.00;;;;;;5070098;28;20241;-73
2022/02/11 07:25:01;;;;;;;19.60;12.07;;;4.40;1.00;;;;;;5051862;28;20207;-73
2022/02/11 07:27:29;;;;;;;19.20;12.63;;;4.40;1.00;;;;;;5066850;28;20233;-73
2022/02/11 07:29:56;;;;;;;18.17;11.87;;;4.40;1.00;;;;;;5061117;28;20207;-73
2022/02/11 07:32:24;;;;;;;17.23;11.87;;;4.40;1.00;;;;;;5069869;28;20686;-72
2022/02/11 07:34:51;;;;;;;16.93;11.50;;;4.40;1.00;;;;;;5077509;28;20201;-73
2022/02/11 07:37:18;;;;;;;20.47;12.27;;;4.40;1.00;;;;;;5071931;28;20224;-73
2022/02/11 07:39:45;;;;;;;17.47;11.17;;;4.50;1.00;;;;;;5064593;28;20557;-73
2022/02/11 07:42:13;;;;;;;17.63;11.23;;;4.40;1.00;;;;;;5071970;28;20396;-73
2022/02/11 07:44:41;;;;;;;17.70;10.80;;;4.40;1.00;;;;;;5068088;28;20202;-73
2022/02/11 07:47:08;;;;;;;18.63;11.20;;;4.40;1.00;;;;;;5071318;28;20222;-73
2022/02/11 07:49:37;;;;;;;14.83;9.97;;;4.50;1.00;;;;;;5081736;28;20202;-72
2022/02/11 07:52:05;;;;;;;18.37;10.67;;;4.50;1.00;;;;;;5079772;28;20198;-73
2022/02/11 07:54:32;;;;;;;14.37;9.73;;;4.50;1.00;;;;;;5083883;28;20228;-72
2022/02/11 07:56:59;;;;;;;16.77;9.93;;;4.60;1.00;;;;;;5085450;28;20202;-73
2022/02/11 07:59:26;;;;;;;16.83;9.83;;;4.50;1.00;;;;;;5076892;28;20277;-73
2022/02/11 08:01:54;;;;;;;17.73;10.60;;;4.50;1.00;;;;;;5083893;28;20194;-73
2022/02/11 08:04:22;;;;;;;17.03;10.10;;;4.50;1.00;;;;;;5084554;28;20202;-73
2022/02/11 08:06:48;;;;;;;19.10;9.97;;;4.60;1.00;;;;;;5085908;28;20268;-73
2022/02/11 08:09:16;;;;;;;13.33;8.60;;;4.60;1.00;;;;;;5088211;28;20544;-73
2022/02/11 08:11:43;;;;;;;13.97;8.57;;;4.60;1.00;;;;;;5082314;28;20729;-73
2022/02/11 08:14:10;;;;;;;14.30;8.83;;;4.60;1.00;;;;;;5088866;28;20206;-73
2022/02/11 08:16:37;;;;;;;12.23;8.47;;;4.60;1.00;;;;;;5080918;28;20878;-73
2022/02/11 08:19:06;;;;;;;16.10;9.67;;;4.60;1.00;;;;;;5086841;28;20206;-73
2022/02/11 08:21:33;;;;;;;13.70;8.63;;;4.60;1.00;;;;;;5081334;28;20206;-73
2022/02/11 08:24:01;;;;;;;12.40;8.43;;;4.60;1.00;;;;;;5079763;28;20204;-73
2022/02/11 08:26:29;;;;;;;13.97;8.73;;;4.70;1.00;;;;;;5086190;28;20202;-73
2022/02/11 08:28:56;;;;;;;13.50;8.07;;;4.70;1.00;;;;;;5085341;28;20217;-73
2022/02/11 08:31:23;;;;;;;14.57;7.83;;;4.70;1.00;;;;;;5081189;28;20205;-73
2022/02/11 08:33:51;;;;;;;12.87;7.53;;;4.80;1.00;;;;;;5083717;28;20595;-72
2022/02/11 08:36:20;;;;;;;11.83;7.43;;;4.80;1.00;;;;;;5083517;28;20290;-73
2022/02/11 08:38:47;;;;;;;10.33;6.87;;;4.80;1.00;;;;;;5085674;28;20202;-73
2022/02/11 08:41:14;;;;;;;10.37;6.87;;;4.80;1.00;;;;;;5086116;28;20664;-73
2022/02/11 08:43:41;;;;;;;13.17;7.23;;;4.90;1.00;;;;;;5080252;28;20720;-72
2022/02/11 08:46:09;;;;;;;11.43;7.03;;;4.90;1.00;;;;;;5088414;28;20201;-73
2022/02/11 08:48:36;;;;;;;13.10;6.97;;;5.00;1.00;;;;;;5077506;28;20228;-73
2022/02/11 08:51:03;;;;;;;9.80;6.30;;;5.00;1.00;;;;;;5085168;28;20675;-73
2022/02/11 08:53:31;;;;;;;10.03;6.00;;;5.00;1.00;;;;;;5083922;28;20701;-73
2022/02/11 08:55:58;;;;;;;9.73;5.47;;;5.00;1.00;;;;;;5081320;28;20224;-73
2022/02/11 08:58:25;;;;;;;9.10;5.10;;;5.10;1.00;;;;;;5087188;28;20660;-73
2022/02/11 09:00:52;;;;;;;9.43;6.47;;;5.10;1.00;;;;;;5085418;28;20715;-73
2022/02/11 09:03:19;;;;;;;7.77;4.30;;;5.20;1.00;;;;;;5078349;28;20210;-73
2022/02/11 09:05:46;;;;;;;6.93;3.43;;;5.20;1.00;;;;;;5083626;28;20612;-72
2022/02/11 09:08:13;;;;;;;4.83;3.23;;;5.30;1.00;;;;;;5082064;28;20217;-73
2022/02/11 09:10:41;;;;;;;7.27;2.90;;;5.20;1.00;;;;;;5083724;28;20289;-73
2022/02/11 09:13:08;;;;;;;3.50;2.60;;;5.20;1.00;;;;;;5081037;28;20550;-73
2022/02/11 09:15:35;;;;;;;6.97;3.33;;;5.20;1.00;;;;;;5079703;28;20237;-73
2022/02/11 09:18:02;;;;;;;6.57;3.30;;;5.10;1.00;;;;;;5089013;28;20194;-73
2022/02/11 09:20:29;;;;;;;7.20;3.00;;;5.20;1.00;;;;;;5076919;28;20209;-73
2022/02/11 09:22:56;;;;;;;6.73;3.17;;;5.40;1.00;;;;;;5082001;28;20210;-73
2022/02/11 09:25:23;;;;;;;7.90;2.50;;;5.60;1.00;;;;;;5082542;28;20205;-73
2022/02/11 09:27:51;;;;;;;4.27;2.03;;;5.60;1.00;;;;;;5080714;28;20217;-73
2022/02/11 09:30:20;;;;;;;6.17;1.60;;;5.60;1.00;;;;;;5086058;28;20294;-68
2022/02/11 09:32:49;;;;;;;2.80;1.90;;;5.60;1.00;;;;;;5086098;28;20209;-68
2022/02/11 09:35:17;;;;;;;3.17;1.60;;;5.50;1.00;;;;;;5082134;28;20202;-68
2022/02/11 09:37:44;;;;;;;3.67;1.60;;;5.30;1.00;;;;;;5082413;28;20194;-68
2022/02/11 09:40:14;;;;;;;5.83;1.50;;;5.30;1.00;;;;;;5081318;28;20681;-68
2022/02/11 09:42:41;;;;;;;2.57;1.37;;;5.20;1.00;;;;;;5080602;28;20663;-68
2022/02/11 09:45:14;;;;;;;3.43;1.23;;;5.20;1.00;;;;;;5080298;28;20575;-68
2022/02/11 09:47:42;;;;;;;2.70;0.80;;;5.10;1.00;;;;;;5080170;28;20268;-68
2022/02/11 09:50:10;;;;;;;2.87;0.87;;;5.20;1.00;;;;;;5081786;28;20198;-68
2022/02/11 09:52:39;;;;;;;2.00;0.67;;;5.30;1.00;;;;;;5078386;28;20700;-68
2022/02/11 09:57:51;;;;;;;2.10;0.80;;;5.40;1.00;;;;;;5083255;28;20216;-68
2022/02/11 10:00:22;;;;;;;3.60;0.80;;;5.40;1.00;;;;;;5079594;28;20205;-68
2022/02/11 10:02:49;;;;;;;1.30;0.60;;;5.40;1.00;;;;;;5086572;28;20612;-68
2022/02/11 10:05:21;;;;;;;3.53;1.10;;;5.40;1.00;;;;;;5081795;28;20566;-68
2022/02/11 10:07:48;;;;;;;3.23;1.27;;;5.40;1.00;;;;;;5086721;28;20654;-68
2022/02/11 10:10:18;;;;;;;2.93;1.00;;;5.40;1.00;;;;;;5082927;28;20538;-68
2022/02/11 10:12:46;;;;;;;3.33;0.70;;;5.40;1.00;;;;;;5090142;28;20202;-68
2022/02/11 10:15:21;;;;;;;2.60;0.77;;;5.50;1.00;;;;;;5083176;28;20707;-68
2022/02/11 10:17:48;;;;;;;3.03;0.80;;;5.60;1.00;;;;;;5089524;28;20201;-68
2022/02/11 10:20:18;;;;;;;2.93;0.67;;;5.60;1.00;;;;;;5080867;28;20202;-68
2022/02/11 10:22:45;;;;;;;3.80;1.43;;;5.60;1.00;;;;;;5087767;28;20212;-68
2022/02/11 10:25:11;;;;;;;4.10;1.70;;;5.60;1.00;;;;;;5088317;28;20198;-68
2022/02/11 10:27:38;;;;;;;1.63;0.57;;;5.60;1.00;;;;;;5088100;28;20231;-68
2022/02/11 10:30:07;;;;;;;1.63;1.30;;;5.50;1.00;;;;;;5085126;28;20204;-67
2022/02/11 10:32:42;;;;;;;4.33;1.00;;;5.60;33.10;;;;;;5085704;28;20204;-68
2022/02/11 10:35:11;;;;;;;4.07;1.27;;;5.60;1.00;;;;;;5088999;28;20198;-68
2022/02/11 10:38:07;;;;;;;3.27;1.10;;;5.60;34.30;;;;;;5091596;28;20604;-68
2022/02/11 10:40:35;;;;;;;2.13;1.00;;;5.60;52.70;;;;;;5086721;28;20202;-68
2022/02/11 10:43:03;;;;;;;7.57;1.13;;;5.50;45.10;;;;;;5081569;28;20198;-68
2022/02/11 10:45:36;;;;;;;2.73;1.00;;;5.60;45.00;;;;;;5090762;28;20561;-68
2022/02/11 10:48:15;;;;;;;1.97;1.23;;;5.60;8.30;;;;;;5082673;28;20566;-68
2022/02/11 10:50:47;;;;;;;2.83;1.07;;;5.60;1.00;;;;;;5079232;28;20235;-68
2022/02/11 10:53:22;;;;;;;2.80;0.80;;;5.60;1.00;;;;;;5079450;28;20205;-68
2022/02/11 10:55:50;;;;;;;2.53;0.97;;;5.60;1.00;;;;;;5083356;28;20567;-68
2022/02/11 10:58:17;;;;;;;3.33;0.90;;;5.60;1.00;;;;;;5080409;28;20222;-69
2022/02/11 11:00:45;;;;;;;1.60;0.80;;;5.70;45.90;;;;;;5086668;28;20780;-68
2022/02/11 11:03:11;;;;;;;2.37;1.03;;;5.60;1.00;;;;;;5082309;28;20194;-68
2022/02/11 11:05:41;;;;;;;1.17;0.77;;;5.50;1.00;;;;;;5083931;28;20258;-68
2022/02/11 11:08:10;;;;;;;2.10;0.97;;;5.60;1.00;;;;;;5083337;28;20209;-69
2022/02/11 11:10:41;;;;;;;0.63;0.63;;;5.70;4.30;;;;;;5087801;28;20203;-68
2022/02/11 11:13:11;;;;;;;2.67;0.83;;;5.70;1.00;;;;;;5087502;28;20204;-68
2022/02/11 11:15:38;;;;;;;0.60;0.60;;;5.80;1.00;;;;;;5080727;28;20204;-68
2022/02/11 11:18:07;;;;;;;4.10;0.60;;;5.80;1.00;;;;;;5090333;28;20210;-68
2022/02/11 11:20:35;;;;;;;1.43;0.80;;;5.90;1.00;;;;;;5083029;28;20201;-68
2022/02/11 11:23:10;;;;;;;2.10;0.63;;;5.90;1.00;;;;;;5082866;28;20210;-68
2022/02/11 11:26:02;;;;;;;3.87;1.20;;;5.90;1.00;;;;;;5083061;28;20205;-68
2022/02/11 11:28:42;;;;;;;6.37;1.40;;;5.90;1.00;;;;;;5078494;28;20218;-68
2022/02/11 11:31:11;;;;;;;1.20;0.57;;;5.90;1.00;;;;;;5089503;28;20204;-68
2022/02/11 11:33:38;;;;;;;3.60;1.00;;;5.90;1.00;;;;;;5085155;28;20207;-68
2022/02/11 11:36:08;;;;;;;4.10;2.20;;;5.80;1.00;;;;;;5083748;28;20202;-68
2022/02/11 11:38:56;;;;;;;1.40;0.80;;;5.90;3.30;;;;;;5085622;28;20209;-68
2022/02/11 11:41:25;;;;;;;2.73;0.77;;;5.80;44.00;;;;;;5090628;28;20235;-68
2022/02/11 11:43:53;;;;;;;3.73;0.70;;;5.80;93.80;;;;;;5086604;28;20655;-68
2022/02/11 11:46:32;;;;;;;1.97;0.63;;;5.70;63.70;;;;;;5080604;28;20202;-68
2022/02/11 11:49:03;;;;;;;3.03;0.80;;;5.70;77.70;;;;;;5088767;28;20256;-68
2022/02/11 11:51:31;;;;;;;1.63;1.07;;;5.80;99.90;;;;;;5078307;28;20618;-68
2022/02/11 11:54:26;;;;;;;3.23;1.10;;;5.80;99.90;;;;;;5083684;28;20651;-68
2022/02/11 11:56:57;;;;;;;2.23;1.03;;;5.80;22.60;;;;;;5080834;28;20205;-68
2022/02/11 11:59:26;;;;;;;1.10;0.63;;;5.70;1.00;;;;;;5082764;28;20225;-68
2022/02/11 12:01:55;;;;;;;3.10;0.60;;;5.70;1.00;;;;;;5086197;28;20198;-68
2022/02/11 12:04:24;;;;;;;1.63;0.67;;;5.70;1.00;;;;;;5087918;28;20661;-68
2022/02/11 12:06:53;;;;;;;0.93;0.60;;;5.70;11.80;;;;;;5081532;28;20209;-68
2022/02/11 12:09:20;;;;;;;2.10;1.03;;;5.80;60.20;;;;;;5085015;28;20236;-68
2022/02/11 12:11:54;;;;;;;2.20;0.90;;;5.80;99.90;;;;;;5080323;28;20718;-69
2022/02/11 12:14:21;;;;;;;1.80;1.17;;;5.80;99.90;;;;;;5087100;28;20206;-68
2022/02/11 12:16:48;;;;;;;4.57;1.60;;;5.90;99.90;;;;;;5080518;28;20206;-68
2022/02/11 12:19:15;;;;;;;4.73;1.30;;;5.80;60.30;;;;;;5080454;28;20243;-68
2022/02/11 12:21:42;;;;;;;1.30;1.20;;;5.90;41.80;;;;;;5090093;28;20201;-68
2022/02/11 12:29:46;;;;;;;2.40;1.53;;;5.80;1.00;;;;;;5082599;28;20229;-68
2022/02/11 12:32:13;;;;;;;5.13;2.20;;;5.80;1.00;;;;;;5079220;28;20202;-68
2022/02/11 12:34:46;;;;;;;6.97;2.80;;;5.80;1.00;;;;;;5087834;28;20201;-68
2022/02/11 12:37:13;;;;;;;5.60;2.90;;;5.80;1.00;;;;;;5084759;28;20207;-68
2022/02/11 12:39:40;;;;;;;3.17;2.87;;;5.80;1.00;;;;;;5084258;28;20203;-68
2022/02/11 12:42:09;;;;;;;6.57;3.40;;;5.90;1.00;;;;;;5082429;28;20202;-68
2022/02/11 12:44:35;;;;;;;4.73;3.20;;;5.80;1.00;;;;;;5085432;28;20406;-68
2022/02/11 12:47:03;;;;;;;7.07;3.83;;;5.80;1.00;;;;;;5080938;28;20217;-68
2022/02/11 12:49:33;;;;;;;5.93;3.53;;;5.80;1.00;;;;;;5077129;28;20222;-68
2022/02/11 12:52:01;;;;;;;4.87;3.50;;;5.70;1.00;;;;;;5080078;28;20193;-68
2022/02/11 12:54:29;;;;;;;5.20;4.00;;;5.70;1.00;;;;;;5085378;28;20663;-68
2022/02/11 12:57:04;;;;;;;7.57;4.10;;;5.80;1.00;;;;;;5078207;28;20593;-69
2022/02/11 12:59:32;;;;;;;4.50;3.67;;;5.80;1.00;;;;;;5081736;28;20227;-70
2022/02/11 13:01:59;;;;;;;6.53;3.87;;;5.80;1.00;;;;;;5075678;28;20212;-70
2022/02/11 13:04:26;;;;;;;6.83;4.73;;;5.70;1.00;;;;;;5080068;28;20201;-70
2022/02/11 13:06:53;;;;;;;8.10;4.60;;;5.40;1.00;;;;;;5087677;28;20651;-70
2022/02/11 13:09:22;;;;;;;8.57;4.90;;;5.40;1.00;;;;;;5082111;28;20586;-70
2022/02/11 13:11:55;;;;;;;7.13;4.47;;;5.40;1.00;;;;;;5076817;28;20547;-70
2022/02/11 13:14:22;;;;;;;6.90;4.67;;;5.40;1.00;;;;;;5080040;28;20209;-70
2022/02/11 13:16:50;;;;;;;8.33;5.23;;;5.40;1.00;;;;;;5086960;28;20201;-70
2022/02/11 13:19:20;;;;;;;8.37;5.27;;;5.20;1.00;;;;;;5077750;28;20190;-70
2022/02/11 13:21:47;;;;;;;6.20;4.60;;;5.20;1.00;;;;;;5083838;28;20656;-70
2022/02/11 13:24:14;;;;;;;7.77;4.23;;;5.20;99.90;;;;;;5074964;28;20198;-70
2022/02/11 13:26:41;;;;;;;7.17;4.40;;;5.20;1.00;;;;;;5083287;28;20217;-70
2022/02/11 13:29:15;;;;;;;5.10;3.90;;;5.20;1.00;;;;;;5080008;28;20224;-70
2022/02/11 13:31:50;;;;;;;7.40;4.37;;;5.30;99.90;;;;;;5082474;28;20208;-70
2022/02/11 13:34:17;;;;;;;5.17;3.50;;;5.30;1.00;;;;;;5075705;28;20202;-70
2022/02/11 13:36:48;;;;;;;4.10;2.90;;;5.30;1.00;;;;;;5076060;28;20237;-70
2022/02/11 13:39:32;;;;;;;4.33;3.10;;;5.40;99.90;;;;;;5085277;28;20190;-70
2022/02/11 13:42:10;;;;;;;4.43;3.33;;;5.40;1.00;;;;;;5081951;28;20710;-70
2022/02/11 13:44:37;;;;;;;3.73;2.90;;;5.40;1.00;;;;;;5070003;28;20206;-70
2022/02/11 13:47:15;;;;;;;5.87;3.23;;;5.40;1.00;;;;;;5077660;28;20205;-70
2022/02/11 13:49:42;;;;;;;4.63;3.20;;;5.40;1.00;;;;;;5075450;28;20226;-70
2022/02/11 13:54:58;;;;;;;3.80;3.30;;;5.40;1.00;;;;;;5079951;28;20192;-70
2022/02/11 13:57:26;;;;;;;4.03;3.17;;;5.30;1.00;;;;;;5074966;28;20264;-70
2022/02/11 13:59:53;;;;;;;4.13;3.27;;;5.40;30.20;;;;;;5085001;28;20204;-70
2022/02/11 14:02:22;;;;;;;5.97;3.90;;;5.40;1.00;;;;;;5079831;28;20298;-70
2022/02/11 14:05:01;;;;;;;3.73;3.00;;;5.40;1.00;;;;;;5086021;28;20212;-70
2022/02/11 14:07:28;;;;;;;4.40;3.37;;;5.40;1.00;;;;;;5081157;28;20202;-70
2022/02/11 14:09:55;;;;;;;3.83;3.17;;;5.40;1.00;;;;;;5079379;28;20217;-70
2022/02/11 14:12:30;;;;;;;3.03;2.63;;;5.40;99.90;;;;;;5076569;28;20206;-70
2022/02/11 14:14:58;;;;;;;5.17;3.20;;;5.40;99.90;;;;;;5081796;28;20247;-70
2022/02/11 14:17:27;;;;;;;6.23;3.50;;;5.40;1.00;;;;;;5079168;28;20202;-70
2022/02/11 14:19:54;;;;;;;5.53;3.40;;;5.40;1.00;;;;;;5079538;28;20197;-70
2022/02/11 14:22:21;;;;;;;7.30;3.60;;;5.40;74.10;;;;;;5085192;28;20202;-70
2022/02/11 14:24:48;;;;;;;7.17;3.77;;;5.40;96.90;;;;;;5078289;28;20208;-70
2022/02/11 14:27:15;;;;;;;8.43;3.87;;;5.50;99.90;;;;;;5077973;28;20198;-70
2022/02/11 14:29:42;;;;;;;6.73;3.57;;;5.50;99.90;;;;;;5086085;28;20220;-70
2022/02/11 14:32:10;;;;;;;6.47;4.03;;;5.40;1.00;;;;;;5078605;28;20561;-70
2022/02/11 14:34:41;;;;;;;5.07;3.77;;;5.40;99.90;;;;;;5082752;28;20198;-70
2022/02/11 14:37:08;;;;;;;9.30;5.00;;;5.40;99.90;;;;;;5078985;28;20206;-70
2022/02/11 14:39:35;;;;;;;7.00;3.63;;;5.40;99.90;;;;;;5078736;28;20205;-70
2022/02/11 14:42:04;;;;;;;8.33;4.30;;;5.40;49.20;;;;;;5078096;28;20214;-70
2022/02/11 14:44:32;;;;;;;8.93;4.10;;;5.40;99.90;;;;;;5084776;28;20686;-70
2022/02/11 14:47:00;;;;;;;12.20;7.40;;;5.40;1.00;;;;;;5076397;28;20679;-70
2022/02/11 14:49:28;;;;;;;4.47;3.70;;;5.50;99.90;;;;;;5080088;28;20232;-70
2022/02/11 14:51:58;;;;;;;8.03;3.30;;;5.40;1.00;;;;;;5074809;28;20225;-70
2022/02/11 14:54:25;;;;;;;6.83;3.50;;;5.40;99.90;;;;;;5083021;28;20201;-70
2022/02/11 14:56:55;;;;;;;4.73;3.00;;;5.20;99.90;;;;;;5088114;28;20205;-70
2022/02/11 14:59:23;;;;;;;4.67;2.73;;;5.10;1.00;;;;;;5078902;28;20197;-70
2022/02/11 15:01:51;;;;;;;4.33;2.40;;;5.00;1.00;;;;;;5092537;28;20205;-70
2022/02/11 15:04:18;;;;;;;5.07;2.43;;;5.00;1.00;;;;;;5087288;28;20700;-70
2022/02/11 15:06:47;;;;;;;3.60;2.17;;;5.10;99.90;;;;;;5081532;28;20211;-70
2022/02/11 15:09:15;;;;;;;3.87;1.93;;;5.10;1.00;;;;;;5090762;28;20221;-70
2022/02/11 15:11:42;;;;;;;2.87;2.00;;;5.10;99.90;;;;;;5081561;28;20202;-70
2022/02/11 15:14:10;;;;;;;3.47;1.97;;;5.10;99.90;;;;;;5087138;28;20202;-70
2022/02/11 15:16:37;;;;;;;4.13;2.03;;;5.10;99.90;;;;;;5080415;28;20232;-70
2022/02/11 15:19:06;;;;;;;3.77;1.50;;;5.10;99.90;;;;;;5086042;28;20201;-70
2022/02/11 15:21:34;;;;;;;3.57;1.47;;;5.10;99.90;;;;;;5083386;28;20207;-70
2022/02/11 15:24:01;;;;;;;5.30;1.60;;;5.10;1.00;;;;;;5082798;28;20567;-70
2022/02/11 15:26:29;;;;;;;8.20;1.40;;;5.10;1.00;;;;;;5081657;28;20238;-70
2022/02/11 15:28:56;;;;;;;3.60;1.10;;;5.10;1.00;;;;;;5084034;28;20206;-70
2022/02/11 15:31:23;;;;;;;2.63;1.27;;;5.00;99.90;;;;;;5078610;28;20209;-70
2022/02/11 15:33:51;;;;;;;4.87;1.50;;;5.00;1.00;;;;;;5091898;28;20202;-70
2022/02/11 15:36:18;;;;;;;5.80;2.00;;;5.00;99.90;;;;;;5079412;28;20247;-70
2022/02/11 15:38:45;;;;;;;6.70;2.00;;;4.90;99.90;;;;;;5082629;28;20570;-70
2022/02/11 15:41:12;;;;;;;6.10;1.90;;;4.90;99.90;;;;;;5090358;28;20546;-70
2022/02/11 15:43:40;;;;;;;6.50;1.93;;;4.90;99.90;;;;;;5079497;28;20205;-70
2022/02/11 15:46:09;;;;;;;9.97;2.80;;;4.90;24.90;;;;;;5084484;28;20549;-70
2022/02/11 15:48:39;;;;;;;15.73;4.30;;;4.90;99.90;;;;;;5080302;28;20218;-70
2022/02/11 15:51:07;;;;;;;8.60;2.77;;;4.90;38.20;;;;;;5084914;28;20221;-70
2022/02/11 15:53:34;;;;;;;10.43;2.60;;;4.90;1.00;;;;;;5083327;28;20209;-70
2022/02/11 15:56:01;;;;;;;11.07;3.70;;;4.90;99.90;;;;;;5080671;28;20209;-70
2022/02/11 15:58:28;;;;;;;11.50;3.83;;;4.80;1.00;;;;;;5081744;28;20211;-70
2022/02/11 16:00:57;;;;;;;13.30;4.70;;;4.80;99.90;;;;;;5087703;28;20715;-70
2022/02/11 16:03:25;;;;;;;14.03;4.43;;;4.80;99.90;;;;;;5078174;28;20225;-70
2022/02/11 16:05:52;;;;;;;11.80;4.27;;;4.80;1.00;;;;;;5089674;28;20198;-70
2022/02/11 16:08:19;;;;;;;14.73;4.40;;;4.80;99.90;;;;;;5078626;28;21018;-70
2022/02/11 16:10:46;;;;;;;18.53;4.87;;;4.80;99.90;;;;;;5081471;28;20228;-70
2022/02/11 16:13:13;;;;;;;14.67;4.20;;;4.80;99.90;;;;;;5084633;28;20201;-71
2022/02/11 16:15:41;;;;;;;13.73;4.43;;;4.80;99.90;;;;;;5078587;28;20229;-70
2022/02/11 16:18:14;;;;;;;9.80;4.00;;;4.80;99.90;;;;;;5087439;28;20209;-71
2022/02/11 16:20:43;;;;;;;11.53;3.40;;;4.80;1.00;;;;;;5089156;28;20307;-71
2022/02/11 16:23:13;;;;;;;11.03;3.00;;;4.80;99.90;;;;;;5084134;28;20250;-71
2022/02/11 16:25:40;;;;;;;13.80;2.80;;;4.80;60.40;;;;;;5085360;28;20213;-78
2022/02/11 16:28:08;;;;;;;12.37;2.47;;;4.80;1.00;;;;;;5084825;28;20202;-78
2022/02/11 16:30:36;;;;;;;11.20;2.77;;;4.80;1.00;;;;;;5085979;28;20221;-78
2022/02/11 16:33:04;;;;;;;8.50;2.13;;;4.80;1.00;;;;;;5087637;28;20294;-79
2022/02/11 16:35:33;;;;;;;16.83;6.30;;;4.80;1.00;;;;;;5076998;28;20765;-78
2022/02/11 16:38:01;;;;;;;11.53;3.77;;;4.70;1.00;;;;;;5083054;28;20197;-78
2022/02/11 16:40:29;;;;;;;18.50;3.47;;;4.70;1.00;;;;;;5082249;28;20194;-79
2022/02/11 16:42:56;;;;;;;15.13;6.47;;;4.60;1.00;;;;;;5082804;28;20199;-79
2022/02/11 16:45:23;;;;;;;17.90;7.40;;;4.50;1.00;;;;;;5081994;28;20202;-79